Pagrindinis puslapis
METAR-TAF:

METAR-TAF

Oro uostai :

Vekšė, Švedija

platuma: 56-51N, ilguma: 014-50E, Aukštis: 199 m

Dabartinis oras

Ataskaita buvo paskelbta 37 minutes, ne 12:50 UTC
Vėjas 7 kt iš Vakarų/Šiaurės Vakarų, svyruoja nuo Vakarų/Pietvakarių ir Šiaurės/Šiaurės Vakarų
Temperatūra 4°C
Drėgmė 87%
Slėgis 1002 hPa
Matomumas 10 km arba daugiau
Su prošvaistėmis ne aukštis 2200 ft

METAR: ESMX 191250Z 29007KT 250V330 9999 BKN022 04/02 Q1002

Laikas: 14:27 (13:27 UTC)

Prognozė

Ataskaita buvo paskelbta 1 valandą ir 7 minutes, ne 12:20 UTC
Prognozė galioja nuo 19 metu 12 UTC su 19 metu 21 UTC
Vėjas 8 kt iš Vakarų/Šiaurės Vakarų
Matomumas 10 km arba daugiau
Apsiniaukę ne aukštis 800 ft
Tapsmas
nuo 19 metu 12 UTC su 19 metu 14 UTC
Su prošvaistėmis ne aukštis 1500 ft

TAF: ESMX 191220Z 1912/1921 29008KT 9999 OVC008 BECMG 1912/1914 BKN015

Orai ataskaitas ir orų prognozės (METAR, TAF).

turimą stotys yra geltonos ir raudonos taškus žemėlapyje.

Perkelti pele per norėdami pamatyti stoties vardą.

Tada spustelėkite, norėdami matyti oro stebėjimo ir prognozės.

Norėdami pakeisti žemėlapį: spustelėkite ant žalios mygtukų su juodo kryžiaus žemyn,; žalią mygtuką su brūkšneliu, jei norite nutolinti; arba žalių rodyklių gretimoms žemėlapius.


METAR-TAF: